createdAt,value
2019-03-10T00:03:35.218Z,5.30
2019-03-10T00:21:33.391Z,5.87
2019-03-10T00:25:42.908Z,5.97
2019-03-10T00:29:52.460Z,6.17
2019-03-10T00:33:59.152Z,6.37
2019-03-10T00:38:08.934Z,6.10
2019-03-10T00:42:47.322Z,6.17
2019-03-10T00:47:26.910Z,6.20
2019-03-10T00:51:46.265Z,5.90
2019-03-10T00:55:53.087Z,4.90
2019-03-10T01:00:00.639Z,5.87
2019-03-10T01:04:29.254Z,5.57
2019-03-10T01:08:39.824Z,5.23
2019-03-10T01:12:48.128Z,4.27
2019-03-10T01:16:54.955Z,4.63
2019-03-10T01:21:06.407Z,3.60
2019-03-10T01:25:14.349Z,1.57
2019-03-10T01:29:21.660Z,2.27
2019-03-10T01:33:26.706Z,1.97
2019-03-10T01:37:35.988Z,2.03
2019-03-10T01:45:52.570Z,2.00
2019-03-10T01:50:00.444Z,2.50
2019-03-10T01:54:10.525Z,2.43
2019-03-10T01:58:16.934Z,2.70
2019-03-10T02:02:27.560Z,3.00
2019-03-10T02:06:38.216Z,2.27
2019-03-10T02:10:48.288Z,2.67
2019-03-10T02:14:54.721Z,1.87
2019-03-10T02:19:02.235Z,3.80
2019-03-10T02:23:08.635Z,2.77
2019-03-10T02:27:17.001Z,3.70
2019-03-10T02:35:36.672Z,3.07
2019-03-10T02:39:44.826Z,2.87
2019-03-10T02:43:53.506Z,2.97
2019-03-10T02:48:05.744Z,3.20
2019-03-10T02:52:15.615Z,2.83
2019-03-10T02:56:22.139Z,1.90
2019-03-10T03:00:34.875Z,1.90
2019-03-10T03:04:41.273Z,1.50
2019-03-10T03:08:50.029Z,2.30
2019-03-10T03:13:18.106Z,1.67
2019-03-10T03:17:24.897Z,1.30
2019-03-10T03:56:10.198Z,1.67
2019-03-10T04:04:25.960Z,1.23
2019-03-10T05:17:17.584Z,1.60
2019-03-10T05:21:27.600Z,2.37
2019-03-10T05:25:34.481Z,2.77
2019-03-10T05:34:46.424Z,1.80
2019-03-10T05:38:52.957Z,1.80
2019-03-10T05:43:01.866Z,1.63
2019-03-10T05:47:08.158Z,1.30
2019-03-10T05:51:16.225Z,1.47
2019-03-10T05:55:45.686Z,1.63
2019-03-10T08:50:42.503Z,2.83
2019-03-10T08:54:37.629Z,3.20
2019-03-10T08:59:00.607Z,2.10
2019-03-10T09:12:29.666Z,3.10
2019-03-10T09:21:20.553Z,2.80
2019-03-10T09:25:45.738Z,2.77
2019-03-10T09:34:40.374Z,2.17
2019-03-10T09:38:57.423Z,2.40
2019-03-10T09:43:17.369Z,2.43
2019-03-10T09:47:37.203Z,2.70
2019-03-10T09:51:57.140Z,2.97
2019-03-10T09:56:20.390Z,2.43
2019-03-10T10:00:48.019Z,2.00
2019-03-10T10:05:19.519Z,2.70
2019-03-10T11:14:22.809Z,2.53
2019-03-10T12:19:23.070Z,3.17
2019-03-10T12:23:29.814Z,3.60
2019-03-10T12:27:58.445Z,3.77
2019-03-10T12:32:12.438Z,3.80
2019-03-10T12:36:21.902Z,2.43
2019-03-10T12:57:37.787Z,3.60
2019-03-10T13:01:45.188Z,2.67
2019-03-10T13:05:52.302Z,2.97
2019-03-10T13:10:03.007Z,4.53
2019-03-10T13:14:10.551Z,3.77
2019-03-10T13:18:20.770Z,3.43
2019-03-10T13:22:27.403Z,2.60
2019-03-10T13:48:15.231Z,3.20
2019-03-10T13:52:21.617Z,3.67
2019-03-10T13:56:49.709Z,3.97
2019-03-10T15:01:35.708Z,3.60
2019-03-10T15:05:48.525Z,4.20
2019-03-10T15:09:57.589Z,3.67
2019-03-10T15:14:04.748Z,4.33
2019-03-10T15:18:12.530Z,2.87
2019-03-10T15:22:22.630Z,4.53
2019-03-10T15:26:45.204Z,4.23
2019-03-10T15:30:45.189Z,3.73
2019-03-10T15:34:52.895Z,3.90
2019-03-10T15:39:02.024Z,4.00
2019-03-10T15:43:12.001Z,3.90
2019-03-10T15:47:21.133Z,3.80
2019-03-10T15:51:28.161Z,4.10
2019-03-10T15:55:43.643Z,3.90
2019-03-10T15:59:50.564Z,3.50
2019-03-10T16:04:04.286Z,4.40
2019-03-10T16:26:05.933Z,4.90
2019-03-10T16:30:15.782Z,5.30
2019-03-10T16:34:23.147Z,5.27
2019-03-10T16:38:32.054Z,5.70
2019-03-10T16:42:38.568Z,5.97
2019-03-10T16:51:11.869Z,5.37
2019-03-10T16:55:18.359Z,4.10
2019-03-10T16:59:27.405Z,4.40
2019-03-10T17:03:33.817Z,5.00
2019-03-10T17:11:52.540Z,4.67
2019-03-10T17:16:09.569Z,5.00
2019-03-10T17:20:16.672Z,5.77
2019-03-10T17:24:28.756Z,6.30
2019-03-10T17:28:37.094Z,5.47
2019-03-10T17:32:50.229Z,6.40
2019-03-10T17:37:07.292Z,7.00
2019-03-10T17:41:16.401Z,6.93
2019-03-10T17:58:22.218Z,8.03
2019-03-10T18:02:37.818Z,7.57
2019-03-10T18:11:10.989Z,9.83
2019-03-10T18:15:17.807Z,8.93
2019-03-10T18:19:28.875Z,8.50
2019-03-10T18:23:35.269Z,7.77
2019-03-10T18:27:45.453Z,8.43
2019-03-10T18:31:54.755Z,8.53
2019-03-10T18:36:01.652Z,9.13
2019-03-10T18:40:12.119Z,9.60
2019-03-10T18:44:23.440Z,10.53
2019-03-10T18:48:35.654Z,9.73
2019-03-10T19:32:17.898Z,12.00
2019-03-10T19:36:28.306Z,13.10
2019-03-10T19:40:34.769Z,12.87
2019-03-10T19:44:43.751Z,12.27
2019-03-10T19:48:54.177Z,12.83
2019-03-10T19:53:02.636Z,11.33
2019-03-10T19:57:09.092Z,13.17
2019-03-10T20:01:18.248Z,12.90
2019-03-10T20:05:27.854Z,14.50
2019-03-10T20:09:35.685Z,14.50
2019-03-10T20:13:59.787Z,15.10
2019-03-10T20:18:07.838Z,14.63
2019-03-10T20:22:17.933Z,14.93
2019-03-10T20:26:29.419Z,15.60
2019-03-10T20:30:48.533Z,16.03
2019-03-10T20:34:56.271Z,14.63
2019-03-10T20:39:07.701Z,14.37
2019-03-10T20:43:16.351Z,13.57
2019-03-10T20:47:27.602Z,15.03
2019-03-10T20:51:34.090Z,14.30
2019-03-10T20:55:40.608Z,13.03
2019-03-10T21:00:00.246Z,12.47
2019-03-10T21:04:02.266Z,12.20
2019-03-10T21:08:15.524Z,11.60
2019-03-10T21:12:26.961Z,12.43
2019-03-10T21:16:32.522Z,11.97
2019-03-10T21:20:39.259Z,11.77
2019-03-10T21:25:07.345Z,14.27
2019-03-10T21:29:15.622Z,12.57
2019-03-10T21:33:28.382Z,13.53
2019-03-10T21:37:36.707Z,12.60
2019-03-10T21:41:42.956Z,13.47
2019-03-10T21:45:50.443Z,14.07
2019-03-10T21:49:56.941Z,15.23
2019-03-10T21:54:05.296Z,15.47
2019-03-10T21:58:13.397Z,15.37
2019-03-10T22:02:19.960Z,16.80
2019-03-10T22:06:28.054Z,16.77
2019-03-10T22:10:36.967Z,15.63
2019-03-10T22:14:47.584Z,17.10
2019-03-10T22:18:56.332Z,16.10
2019-03-10T22:23:07.057Z,17.70
2019-03-10T22:27:15.275Z,16.53
2019-03-10T22:35:35.683Z,15.93
2019-03-10T22:39:47.502Z,15.43
2019-03-10T22:43:54.292Z,16.43
2019-03-10T22:48:01.727Z,17.53
2019-03-10T22:52:14.649Z,17.30
2019-03-10T23:00:47.934Z,16.13
2019-03-10T23:04:57.004Z,13.97
2019-03-10T23:09:05.544Z,15.60
2019-03-10T23:13:17.300Z,15.00
2019-03-10T23:17:23.678Z,15.67
2019-03-10T23:21:30.076Z,13.97
2019-03-10T23:30:12.555Z,14.77
2019-03-10T23:34:24.704Z,14.10
2019-03-10T23:38:31.153Z,13.57
2019-03-10T23:42:43.425Z,11.20
2019-03-10T23:46:51.670Z,14.90
2019-03-10T23:50:58.504Z,13.93
2019-03-10T23:55:07.786Z,13.17
2019-03-10T23:59:17.271Z,10.63
